Spar Draco — LAFO6 — position and weather

sailwx.info

Track history (hours):
 
Tides and Currents Weather Stations Pressure Air Temp Water Temp Dewpoint Dewpoint Depression Visibility Wind Speed Wind Dir Waves Ship Positions

Spar Draco

Last reported at 2015-Aug-16 09:11 UTC. Time now 2015-Aug-29 20:59 UTC.
Position N 50°14' W 001°24'.
Warning: this ship's position is 13 days out of date.

Length 190 m; draft 12.7 m.

Type: Cargo ship. MMSI: 257799000.

Date/timePositionNaut miles runAvg speedWind from/ knotsBaromVisibWave heightAir tempDewpointWater temp
2015-Aug-16 09:11N 50°14' W 001°24'5 7.5
2015-Aug-16 08:33N 50°16' W 001°17'9 8.1
2015-Aug-16 07:30N 50°18' W 001°04'1010.2
2015-Aug-16 06:29N 50°21' W 000°48'1111.6
2015-Aug-16 05:34N 50°23' W 000°32'2612.4
2015-Aug-16 03:28N 50°30' E 000°07'1112.2
2015-Aug-16 02:33N 50°33' E 000°24'1111.3
2015-Aug-16 01:34N 50°38' E 000°40'1010.4
2015-Aug-16 00:33N 50°43' E 000°54'9 9.4
2015-Aug-15 23:33N 50°49' E 001°07'9 9.2
2015-Aug-15 22:33N 50°54' E 001°18'1111.0
2015-Aug-15 21:34N 51°03' E 001°29'1313.5
2015-Aug-15 20:34N 51°12' E 001°44'1313.2
2015-Aug-15 19:34N 51°23' E 001°56'1212.0
2015-Aug-15 18:33N 51°33' E 002°08'1111.3
2015-Aug-15 17:33N 51°41' E 002°20'48 9.2
2015-Aug-15 12:22N 52°04' E 003°29'910.6
2015-Aug-15 11:32N 52°03' E 003°43'8 8.6
2015-Aug-15 10:34N 52°02' E 003°56'9 9.4
2015-Aug-15 09:34N 51°57' E 004°10'6 6.4
2015-Aug-15 08:34N 51°53' E 004°18'1 0.9
2015-Aug-15 07:30N 51°54' E 004°16'0 0.0
2015-Aug-15 06:30N 51°54' E 004°16'0 0.0
2015-Aug-15 05:30N 51°54' E 004°16'0 0.0
2015-Aug-15 04:30N 51°54' E 004°16'0 0.0
2015-Aug-15 03:30N 51°54' E 004°16'0 0.0
2015-Aug-15 02:30N 51°54' E 004°16'0 0.0
2015-Aug-15 01:34N 51°54' E 004°16'0 0.0
2015-Aug-15 00:33N 51°54' E 004°16'0 0.0
2015-Aug-14 23:33N 51°54' E 004°16'0 0.0
2015-Aug-14 22:33N 51°54' E 004°16'0 0.0
2015-Aug-14 21:33N 51°54' E 004°16'0 0.0
2015-Aug-14 20:33N 51°54' E 004°16'0 0.0
2015-Aug-14 19:33N 51°54' E 004°16'0 0.0
2015-Aug-14 18:33N 51°54' E 004°16'0 0.0
2015-Aug-14 17:30N 51°54' E 004°16'0 0.0
2015-Aug-14 16:33N 51°54' E 004°16'0 0.0
2015-Aug-14 15:33N 51°54' E 004°16'0 0.0
2015-Aug-14 14:33N 51°54' E 004°16'0 0.0
2015-Aug-14 13:33N 51°54' E 004°16'0 0.0
2015-Aug-14 12:31N 51°54' E 004°16'0 0.0
2015-Aug-14 11:30N 51°54' E 004°16'0 0.0
2015-Aug-14 10:30N 51°54' E 004°16'0 0.0
2015-Aug-14 09:30N 51°54' E 004°16'0 0.0
2015-Aug-14 08:30N 51°54' E 004°16'0 0.0
2015-Aug-14 07:30N 51°54' E 004°16'0 0.0
2015-Aug-14 06:30N 51°54' E 004°16'0 0.0
2015-Aug-14 05:30N 51°54' E 004°16'0 0.0
2015-Aug-14 04:30N 51°54' E 004°16'0 0.0
2015-Aug-14 03:30N 51°54' E 004°16'0 0.0
2015-Aug-14 02:28N 51°54' E 004°16'0 0.0
2015-Aug-14 01:34N 51°54' E 004°16'0 0.0
2015-Aug-14 00:34N 51°54' E 004°16'0 0.0
2015-Aug-13 23:34N 51°54' E 004°16'0 0.0
2015-Aug-13 22:34N 51°54' E 004°16'0 0.0
2015-Aug-13 21:34N 51°54' E 004°16'0 0.0
2015-Aug-13 20:34N 51°54' E 004°16'1 1.3
2015-Aug-13 19:34N 51°54' E 004°18'6 5.9
2015-Aug-13 18:34N 51°57' E 004°11'8 7.8
2015-Aug-13 17:34N 51°60' E 003°59'9 8.8
2015-Aug-13 16:34N 52°02' E 003°45'7 7.1
2015-Aug-13 15:34N 52°06' E 003°35'8 7.6
2015-Aug-13 14:33N 52°10' E 003°24'1110.0
2015-Aug-13 13:29N 52°16' E 003°10'40 9.9
2015-Aug-13 09:30N 52°49' E 003°46'1110.2
2015-Aug-13 08:26N 52°57' E 003°58'1211.5
2015-Aug-13 07:25N 53°04' E 004°13'1011.3
2015-Aug-13 06:33N 53°11' E 004°24'1110.8
2015-Aug-13 05:32N 53°21' E 004°31'1010.1
2015-Aug-13 04:33N 53°29' E 004°42'1110.9
2015-Aug-13 03:34N 53°34' E 004°58'1211.7
2015-Aug-13 02:34N 53°38' E 005°17'1312.8
2015-Aug-13 01:34N 53°42' E 005°37'1313.1
2015-Aug-13 00:34N 53°46' E 005°58'1312.8
2015-Aug-12 23:34N 53°50' E 006°19'1312.4
2015-Aug-12 22:31N 53°53' E 006°40'1111.8
2015-Aug-12 21:33N 53°56' E 006°59'1111.2
2015-Aug-12 20:33N 53°58' E 007°17'1110.8
2015-Aug-12 19:33N 54°01' E 007°35'1110.5
2015-Aug-12 18:34N 54°01' E 007°53'1111.0
2015-Aug-12 17:33N 54°01' E 008°12'1312.8
2015-Aug-12 16:34N 53°58' E 008°33'1313.4
2015-Aug-12 15:34N 53°50' E 008°52'1313.3
2015-Aug-12 14:34N 53°53' E 009°14'1212.3
2015-Aug-12 13:33N 53°44' E 009°28'1110.7
2015-Aug-12 12:34N 53°35' E 009°38'9 8.8
2015-Aug-12 11:34N 53°33' E 009°52'4 3.7
2015-Aug-12 10:33N 53°32' E 009°58'0 0.0
2015-Aug-12 09:33N 53°32' E 009°58'0 0.0
2015-Aug-12 08:34N 53°32' E 009°58'0 0.0
2015-Aug-12 07:34N 53°32' E 009°58'0 0.0
2015-Aug-12 06:34N 53°32' E 009°58'0 0.0
2015-Aug-12 05:34N 53°32' E 009°58'0 0.0
2015-Aug-12 04:34N 53°32' E 009°58'0 0.0
2015-Aug-12 03:34N 53°32' E 009°58'0 0.0
2015-Aug-12 02:34N 53°32' E 009°58'0 0.0
2015-Aug-12 01:34N 53°32' E 009°58'0 0.0
2015-Aug-12 00:34N 53°32' E 009°58'0 0.0
2015-Aug-11 23:34N 53°32' E 009°58'0 0.0
2015-Aug-11 22:34N 53°32' E 009°58'0 0.0
2015-Aug-11 21:34N 53°32' E 009°58'0 0.0
2015-Aug-11 20:34N 53°32' E 009°58'0 0.0
2015-Aug-11 19:34N 53°32' E 009°58'0 0.0
2015-Aug-11 18:34N 53°32' E 009°58'0 0.0
2015-Aug-11 17:34N 53°32' E 009°58'0 0.0
2015-Aug-11 16:34N 53°32' E 009°58'0 0.0
2015-Aug-11 15:34N 53°32' E 009°58'0 0.0
2015-Aug-11 14:34N 53°32' E 009°58'0 0.0
2015-Aug-11 13:33N 53°32' E 009°58'0 0.0
2015-Aug-11 12:34N 53°32' E 009°58'0 0.0
2015-Aug-11 11:33N 53°32' E 009°58'0 0.0
2015-Aug-11 10:34N 53°32' E 009°58'0 0.0
2015-Aug-11 09:34N 53°32' E 009°58'0 0.0
2015-Aug-11 08:34N 53°32' E 009°58'0 0.0
2015-Aug-11 07:34N 53°32' E 009°58'0 0.0
2015-Aug-11 06:34N 53°32' E 009°58'0 0.0
2015-Aug-11 05:34N 53°32' E 009°58'0 0.0
2015-Aug-11 04:34N 53°32' E 009°58'0 0.0
2015-Aug-11 03:34N 53°32' E 009°58'0 0.0
2015-Aug-11 02:34N 53°32' E 009°58'0 0.0
2015-Aug-11 01:34N 53°32' E 009°58'0 0.0
2015-Aug-11 00:34N 53°32' E 009°58'0 0.0
2015-Aug-10 23:34N 53°32' E 009°58'0 0.0
2015-Aug-10 22:34N 53°32' E 009°58'0 0.0
2015-Aug-10 21:34N 53°32' E 009°58'0 0.0
2015-Aug-10 20:34N 53°32' E 009°58'0 0.0
2015-Aug-10 19:34N 53°32' E 009°58'0 0.0
2015-Aug-10 18:34N 53°32' E 009°58'0 0.0
2015-Aug-10 17:33N 53°32' E 009°58'0 0.0
2015-Aug-10 16:34N 53°32' E 009°58'0 0.0
2015-Aug-10 15:34N 53°32' E 009°58'0 0.0
2015-Aug-10 14:34N 53°32' E 009°58'0 0.0
2015-Aug-10 13:33N 53°32' E 009°58'0 0.0
2015-Aug-10 12:34N 53°32' E 009°58'0 0.0
2015-Aug-10 11:34N 53°32' E 009°58'0 0.0
2015-Aug-10 10:34N 53°32' E 009°58'0 0.0
2015-Aug-10 09:34N 53°32' E 009°58'0 0.0
2015-Aug-10 08:34N 53°32' E 009°58'0 0.0
2015-Aug-10 07:34N 53°32' E 009°58'0 0.0
2015-Aug-10 06:34N 53°32' E 009°58'0 0.0
2015-Aug-10 05:34N 53°32' E 009°58'0 0.0
2015-Aug-10 04:34N 53°32' E 009°58'0 0.0
2015-Aug-10 03:34N 53°32' E 009°58'0 0.0
2015-Aug-10 02:34N 53°32' E 009°58'0 0.0
2015-Aug-10 01:34N 53°32' E 009°58'0 0.0
2015-Aug-10 00:34N 53°32' E 009°58'0 0.0
2015-Aug-09 23:34N 53°32' E 009°58'0 0.0
2015-Aug-09 22:34N 53°32' E 009°58'0 0.0
2015-Aug-09 21:34N 53°32' E 009°58'0 0.0
2015-Aug-09 20:34N 53°32' E 009°58'0 0.0
2015-Aug-09 19:34N 53°32' E 009°58'0 0.0
2015-Aug-09 18:34N 53°32' E 009°58'0 0.0
2015-Aug-09 17:34N 53°32' E 009°58'5 4.7
2015-Aug-09 16:34N 53°33' E 009°51'1010.3
2015-Aug-09 15:33N 53°37' E 009°34'1010.1
2015-Aug-09 14:33N 53°45' E 009°25'1010.1
2015-Aug-09 13:33N 53°53' E 009°14'8 8.2
2015-Aug-09 12:34N 53°51' E 009°00'9 8.5
2015-Aug-09 11:34N 53°51' E 008°46'9 8.7
2015-Aug-09 10:34N 53°58' E 008°36'1010.2
2015-Aug-09 09:34N 53°59' E 008°19'1010.1
2015-Aug-09 08:33N 53°59' E 008°02'7 7.0
2015-Aug-09 07:34N 53°57' E 007°50'5 4.6
2015-Aug-09 06:34N 53°53' E 007°47'1111.2
2015-Aug-09 05:34N 53°50' E 008°05'1111.4
2015-Aug-09 04:34N 53°42' E 008°20'1010.3
2015-Aug-09 03:34N 53°35' E 008°32'8 8.1
2015-Aug-09 02:33N 53°27' E 008°29'1111.4
2015-Aug-09 01:34N 53°15' E 008°29'10 9.9
2015-Aug-09 00:34N 53°08' E 008°39'1 1.2
2015-Aug-08 23:34N 53°07' E 008°41'0 0.0
2015-Aug-08 22:34N 53°07' E 008°41'0 0.0
2015-Aug-08 21:34N 53°07' E 008°41'0 0.0
2015-Aug-08 20:34N 53°07' E 008°41'0 0.0
2015-Aug-08 19:34N 53°07' E 008°41'0 0.0
2015-Aug-08 18:34N 53°07' E 008°41'0 0.0
2015-Aug-08 17:34N 53°07' E 008°41'0 0.0
2015-Aug-08 16:34N 53°07' E 008°41'0 0.0
2015-Aug-08 15:34N 53°07' E 008°41'0 0.0
2015-Aug-08 14:34N 53°07' E 008°41'0 0.0
2015-Aug-08 13:34N 53°07' E 008°41'0 0.0
2015-Aug-08 12:34N 53°07' E 008°41'0 0.0
2015-Aug-08 11:34N 53°07' E 008°41'0 0.0
2015-Aug-08 10:34N 53°07' E 008°41'0 0.0
2015-Aug-08 09:34N 53°07' E 008°41'0 0.0
2015-Aug-08 08:34N 53°07' E 008°41'0 0.0
2015-Aug-08 07:34N 53°07' E 008°41'0 0.0
2015-Aug-08 06:34N 53°07' E 008°41'0 0.0
2015-Aug-08 05:34N 53°07' E 008°41'0 0.0
2015-Aug-08 04:34N 53°07' E 008°41'0 0.0
2015-Aug-08 03:34N 53°07' E 008°41'0 0.0
2015-Aug-08 02:34N 53°07' E 008°41'0 0.0
2015-Aug-08 01:34N 53°07' E 008°41'0 0.0
2015-Aug-08 00:34N 53°07' E 008°41'0 0.0
2015-Aug-07 23:34N 53°07' E 008°41'0 0.0
2015-Aug-07 22:34N 53°07' E 008°41'0 0.0
2015-Aug-07 21:34N 53°07' E 008°41'0 0.0
2015-Aug-07 20:34N 53°07' E 008°41'0 0.0
2015-Aug-07 19:34N 53°07' E 008°41'0 0.0
2015-Aug-07 18:34N 53°07' E 008°41'0 0.0
2015-Aug-07 17:34N 53°07' E 008°41'0 0.0
2015-Aug-07 16:34N 53°07' E 008°41'0 0.0
2015-Aug-07 15:34N 53°07' E 008°41'0 0.0
2015-Aug-07 14:34N 53°07' E 008°41'0 0.0
2015-Aug-07 13:34N 53°07' E 008°41'0 0.0
2015-Aug-07 12:33N 53°07' E 008°41'0 0.0
2015-Aug-07 11:34N 53°07' E 008°41'0 0.0
2015-Aug-07 10:34N 53°07' E 008°41'0 0.0
2015-Aug-07 09:34N 53°07' E 008°41'0 0.0
2015-Aug-07 08:34N 53°07' E 008°41'0 0.0
2015-Aug-07 07:34N 53°07' E 008°41'0 0.0
2015-Aug-07 06:34N 53°07' E 008°41'0 0.0
2015-Aug-07 05:34N 53°07' E 008°41'0 0.0
2015-Aug-07 04:34N 53°07' E 008°41'0 0.0
2015-Aug-07 03:34N 53°07' E 008°41'0 0.0
2015-Aug-07 02:34N 53°07' E 008°41'0 0.0
2015-Aug-07 01:34N 53°07' E 008°41'0 0.0
2015-Aug-07 00:34N 53°07' E 008°41'0 0.0
2015-Aug-06 23:34N 53°07' E 008°41'0 0.0
2015-Aug-06 22:34N 53°07' E 008°41'0 0.0
2015-Aug-06 21:34N 53°07' E 008°41'0 0.0
2015-Aug-06 20:34N 53°07' E 008°41'0 0.0
2015-Aug-06 19:34N 53°07' E 008°41'0 0.0
2015-Aug-06 18:34N 53°07' E 008°41'0 0.0
2015-Aug-06 17:34N 53°07' E 008°41'0 0.0
2015-Aug-06 16:34N 53°07' E 008°41'0 0.0
2015-Aug-06 15:34N 53°07' E 008°41'0 0.0
2015-Aug-06 14:34N 53°07' E 008°41'0 0.0
2015-Aug-06 13:34N 53°07' E 008°41'0 0.0
2015-Aug-06 12:34N 53°07' E 008°41'0 0.0
2015-Aug-06 11:34N 53°07' E 008°41'0 0.0
2015-Aug-06 10:34N 53°07' E 008°41'0 0.0
2015-Aug-06 09:34N 53°07' E 008°41'  
Track history (hours):
 
Tides and Currents Weather Stations Pressure Air Temp Water Temp Dewpoint Dewpoint Depression Visibility Wind Speed Wind Dir Waves Ship Positions

Spar Draco

Last reported at 2015-Aug-16 09:11 UTC. Time now 2015-Aug-29 20:59 UTC.
Position N 50°14' W 001°24'.
Warning: this ship's position is 13 days out of date.

Length 190 m; draft 12.7 m.

Type: Cargo ship. MMSI: 257799000.

Date/timePositionNaut miles runAvg speedWind from/ knotsBaromVisibWave heightAir tempDewpointWater temp
2015-Aug-16 09:11N 50°14' W 001°24'5 7.5
2015-Aug-16 08:33N 50°16' W 001°17'9 8.1
2015-Aug-16 07:30N 50°18' W 001°04'1010.2
2015-Aug-16 06:29N 50°21' W 000°48'1111.6
2015-Aug-16 05:34N 50°23' W 000°32'2612.4
2015-Aug-16 03:28N 50°30' E 000°07'1112.2
2015-Aug-16 02:33N 50°33' E 000°24'1111.3
2015-Aug-16 01:34N 50°38' E 000°40'1010.4
2015-Aug-16 00:33N 50°43' E 000°54'9 9.4
2015-Aug-15 23:33N 50°49' E 001°07'9 9.2
2015-Aug-15 22:33N 50°54' E 001°18'1111.0
2015-Aug-15 21:34N 51°03' E 001°29'1313.5
2015-Aug-15 20:34N 51°12' E 001°44'1313.2
2015-Aug-15 19:34N 51°23' E 001°56'1212.0
2015-Aug-15 18:33N 51°33' E 002°08'1111.3
2015-Aug-15 17:33N 51°41' E 002°20'48 9.2
2015-Aug-15 12:22N 52°04' E 003°29'910.6
2015-Aug-15 11:32N 52°03' E 003°43'8 8.6
2015-Aug-15 10:34N 52°02' E 003°56'9 9.4
2015-Aug-15 09:34N 51°57' E 004°10'6 6.4
2015-Aug-15 08:34N 51°53' E 004°18'1 0.9
2015-Aug-15 07:30N 51°54' E 004°16'0 0.0
2015-Aug-15 06:30N 51°54' E 004°16'0 0.0
2015-Aug-15 05:30N 51°54' E 004°16'0 0.0
2015-Aug-15 04:30N 51°54' E 004°16'0 0.0
2015-Aug-15 03:30N 51°54' E 004°16'0 0.0
2015-Aug-15 02:30N 51°54' E 004°16'0 0.0
2015-Aug-15 01:34N 51°54' E 004°16'0 0.0
2015-Aug-15 00:33N 51°54' E 004°16'0 0.0
2015-Aug-14 23:33N 51°54' E 004°16'0 0.0
2015-Aug-14 22:33N 51°54' E 004°16'0 0.0
2015-Aug-14 21:33N 51°54' E 004°16'0 0.0
2015-Aug-14 20:33N 51°54' E 004°16'0 0.0
2015-Aug-14 19:33N 51°54' E 004°16'0 0.0
2015-Aug-14 18:33N 51°54' E 004°16'0 0.0
2015-Aug-14 17:30N 51°54' E 004°16'0 0.0
2015-Aug-14 16:33N 51°54' E 004°16'0 0.0
2015-Aug-14 15:33N 51°54' E 004°16'0 0.0
2015-Aug-14 14:33N 51°54' E 004°16'0 0.0
2015-Aug-14 13:33N 51°54' E 004°16'0 0.0
2015-Aug-14 12:31N 51°54' E 004°16'0 0.0
2015-Aug-14 11:30N 51°54' E 004°16'0 0.0
2015-Aug-14 10:30N 51°54' E 004°16'0 0.0
2015-Aug-14 09:30N 51°54' E 004°16'0 0.0
2015-Aug-14 08:30N 51°54' E 004°16'0 0.0
2015-Aug-14 07:30N 51°54' E 004°16'0 0.0
2015-Aug-14 06:30N 51°54' E 004°16'0 0.0
2015-Aug-14 05:30N 51°54' E 004°16'0 0.0
2015-Aug-14 04:30N 51°54' E 004°16'0 0.0
2015-Aug-14 03:30N 51°54' E 004°16'0 0.0
2015-Aug-14 02:28N 51°54' E 004°16'0 0.0
2015-Aug-14 01:34N 51°54' E 004°16'0 0.0
2015-Aug-14 00:34N 51°54' E 004°16'0 0.0
2015-Aug-13 23:34N 51°54' E 004°16'0 0.0
2015-Aug-13 22:34N 51°54' E 004°16'0 0.0
2015-Aug-13 21:34N 51°54' E 004°16'0 0.0
2015-Aug-13 20:34N 51°54' E 004°16'1 1.3
2015-Aug-13 19:34N 51°54' E 004°18'6 5.9
2015-Aug-13 18:34N 51°57' E 004°11'8 7.8
2015-Aug-13 17:34N 51°60' E 003°59'9 8.8
2015-Aug-13 16:34N 52°02' E 003°45'7 7.1
2015-Aug-13 15:34N 52°06' E 003°35'8 7.6
2015-Aug-13 14:33N 52°10' E 003°24'1110.0
2015-Aug-13 13:29N 52°16' E 003°10'40 9.9
2015-Aug-13 09:30N 52°49' E 003°46'1110.2
2015-Aug-13 08:26N 52°57' E 003°58'1211.5
2015-Aug-13 07:25N 53°04' E 004°13'1011.3
2015-Aug-13 06:33N 53°11' E 004°24'1110.8
2015-Aug-13 05:32N 53°21' E 004°31'1010.1
2015-Aug-13 04:33N 53°29' E 004°42'1110.9
2015-Aug-13 03:34N 53°34' E 004°58'1211.7
2015-Aug-13 02:34N 53°38' E 005°17'1312.8
2015-Aug-13 01:34N 53°42' E 005°37'1313.1
2015-Aug-13 00:34N 53°46' E 005°58'1312.8
2015-Aug-12 23:34N 53°50' E 006°19'1312.4
2015-Aug-12 22:31N 53°53' E 006°40'1111.8
2015-Aug-12 21:33N 53°56' E 006°59'1111.2
2015-Aug-12 20:33N 53°58' E 007°17'1110.8
2015-Aug-12 19:33N 54°01' E 007°35'1110.5
2015-Aug-12 18:34N 54°01' E 007°53'1111.0
2015-Aug-12 17:33N 54°01' E 008°12'1312.8
2015-Aug-12 16:34N 53°58' E 008°33'1313.4
2015-Aug-12 15:34N 53°50' E 008°52'1313.3
2015-Aug-12 14:34N 53°53' E 009°14'1212.3
2015-Aug-12 13:33N 53°44' E 009°28'1110.7
2015-Aug-12 12:34N 53°35' E 009°38'9 8.8
2015-Aug-12 11:34N 53°33' E 009°52'4 3.7
2015-Aug-12 10:33N 53°32' E 009°58'0 0.0
2015-Aug-12 09:33N 53°32' E 009°58'0 0.0
2015-Aug-12 08:34N 53°32' E 009°58'0 0.0
2015-Aug-12 07:34N 53°32' E 009°58'0 0.0
2015-Aug-12 06:34N 53°32' E 009°58'0 0.0
2015-Aug-12 05:34N 53°32' E 009°58'0 0.0
2015-Aug-12 04:34N 53°32' E 009°58'0 0.0
2015-Aug-12 03:34N 53°32' E 009°58'0 0.0
2015-Aug-12 02:34N 53°32' E 009°58'0 0.0
2015-Aug-12 01:34N 53°32' E 009°58'0 0.0
2015-Aug-12 00:34N 53°32' E 009°58'0 0.0
2015-Aug-11 23:34N 53°32' E 009°58'0 0.0
2015-Aug-11 22:34N 53°32' E 009°58'0 0.0
2015-Aug-11 21:34N 53°32' E 009°58'0 0.0
2015-Aug-11 20:34N 53°32' E 009°58'0 0.0
2015-Aug-11 19:34N 53°32' E 009°58'0 0.0
2015-Aug-11 18:34N 53°32' E 009°58'0 0.0
2015-Aug-11 17:34N 53°32' E 009°58'0 0.0
2015-Aug-11 16:34N 53°32' E 009°58'0 0.0
2015-Aug-11 15:34N 53°32' E 009°58'0 0.0
2015-Aug-11 14:34N 53°32' E 009°58'0 0.0
2015-Aug-11 13:33N 53°32' E 009°58'0 0.0
2015-Aug-11 12:34N 53°32' E 009°58'0 0.0
2015-Aug-11 11:33N 53°32' E 009°58'0 0.0
2015-Aug-11 10:34N 53°32' E 009°58'0 0.0
2015-Aug-11 09:34N 53°32' E 009°58'0 0.0
2015-Aug-11 08:34N 53°32' E 009°58'0 0.0
2015-Aug-11 07:34N 53°32' E 009°58'0 0.0
2015-Aug-11 06:34N 53°32' E 009°58'0 0.0
2015-Aug-11 05:34N 53°32' E 009°58'0 0.0
2015-Aug-11 04:34N 53°32' E 009°58'0 0.0
2015-Aug-11 03:34N 53°32' E 009°58'0 0.0
2015-Aug-11 02:34N 53°32' E 009°58'0 0.0
2015-Aug-11 01:34N 53°32' E 009°58'0 0.0
2015-Aug-11 00:34N 53°32' E 009°58'0 0.0
2015-Aug-10 23:34N 53°32' E 009°58'0 0.0
2015-Aug-10 22:34N 53°32' E 009°58'0 0.0
2015-Aug-10 21:34N 53°32' E 009°58'0 0.0
2015-Aug-10 20:34N 53°32' E 009°58'0 0.0
2015-Aug-10 19:34N 53°32' E 009°58'0 0.0
2015-Aug-10 18:34N 53°32' E 009°58'0 0.0
2015-Aug-10 17:33N 53°32' E 009°58'0 0.0
2015-Aug-10 16:34N 53°32' E 009°58'0 0.0
2015-Aug-10 15:34N 53°32' E 009°58'0 0.0
2015-Aug-10 14:34N 53°32' E 009°58'0 0.0
2015-Aug-10 13:33N 53°32' E 009°58'0 0.0
2015-Aug-10 12:34N 53°32' E 009°58'0 0.0
2015-Aug-10 11:34N 53°32' E 009°58'0 0.0
2015-Aug-10 10:34N 53°32' E 009°58'0 0.0
2015-Aug-10 09:34N 53°32' E 009°58'0 0.0
2015-Aug-10 08:34N 53°32' E 009°58'0 0.0
2015-Aug-10 07:34N 53°32' E 009°58'0 0.0
2015-Aug-10 06:34N 53°32' E 009°58'0 0.0
2015-Aug-10 05:34N 53°32' E 009°58'0 0.0
2015-Aug-10 04:34N 53°32' E 009°58'0 0.0
2015-Aug-10 03:34N 53°32' E 009°58'0 0.0
2015-Aug-10 02:34N 53°32' E 009°58'0 0.0
2015-Aug-10 01:34N 53°32' E 009°58'0 0.0
2015-Aug-10 00:34N 53°32' E 009°58'0 0.0
2015-Aug-09 23:34N 53°32' E 009°58'0 0.0
2015-Aug-09 22:34N 53°32' E 009°58'0 0.0
2015-Aug-09 21:34N 53°32' E 009°58'0 0.0
2015-Aug-09 20:34N 53°32' E 009°58'0 0.0
2015-Aug-09 19:34N 53°32' E 009°58'0 0.0
2015-Aug-09 18:34N 53°32' E 009°58'0 0.0
2015-Aug-09 17:34N 53°32' E 009°58'5 4.7
2015-Aug-09 16:34N 53°33' E 009°51'1010.3
2015-Aug-09 15:33N 53°37' E 009°34'1010.1
2015-Aug-09 14:33N 53°45' E 009°25'1010.1
2015-Aug-09 13:33N 53°53' E 009°14'8 8.2
2015-Aug-09 12:34N 53°51' E 009°00'9 8.5
2015-Aug-09 11:34N 53°51' E 008°46'9 8.7
2015-Aug-09 10:34N 53°58' E 008°36'1010.2
2015-Aug-09 09:34N 53°59' E 008°19'1010.1
2015-Aug-09 08:33N 53°59' E 008°02'7 7.0
2015-Aug-09 07:34N 53°57' E 007°50'5 4.6
2015-Aug-09 06:34N 53°53' E 007°47'1111.2
2015-Aug-09 05:34N 53°50' E 008°05'1111.4
2015-Aug-09 04:34N 53°42' E 008°20'1010.3
2015-Aug-09 03:34N 53°35' E 008°32'8 8.1
2015-Aug-09 02:33N 53°27' E 008°29'1111.4
2015-Aug-09 01:34N 53°15' E 008°29'10 9.9
2015-Aug-09 00:34N 53°08' E 008°39'1 1.2
2015-Aug-08 23:34N 53°07' E 008°41'0 0.0
2015-Aug-08 22:34N 53°07' E 008°41'0 0.0
2015-Aug-08 21:34N 53°07' E 008°41'0 0.0
2015-Aug-08 20:34N 53°07' E 008°41'0 0.0
2015-Aug-08 19:34N 53°07' E 008°41'0 0.0
2015-Aug-08 18:34N 53°07' E 008°41'0 0.0
2015-Aug-08 17:34N 53°07' E 008°41'0 0.0
2015-Aug-08 16:34N 53°07' E 008°41'0 0.0
2015-Aug-08 15:34N 53°07' E 008°41'0 0.0
2015-Aug-08 14:34N 53°07' E 008°41'0 0.0
2015-Aug-08 13:34N 53°07' E 008°41'0 0.0
2015-Aug-08 12:34N 53°07' E 008°41'0 0.0
2015-Aug-08 11:34N 53°07' E 008°41'0 0.0
2015-Aug-08 10:34N 53°07' E 008°41'0 0.0
2015-Aug-08 09:34N 53°07' E 008°41'0 0.0
2015-Aug-08 08:34N 53°07' E 008°41'0 0.0
2015-Aug-08 07:34N 53°07' E 008°41'0 0.0
2015-Aug-08 06:34N 53°07' E 008°41'0 0.0
2015-Aug-08 05:34N 53°07' E 008°41'0 0.0
2015-Aug-08 04:34N 53°07' E 008°41'0 0.0
2015-Aug-08 03:34N 53°07' E 008°41'0 0.0
2015-Aug-08 02:34N 53°07' E 008°41'0 0.0
2015-Aug-08 01:34N 53°07' E 008°41'0 0.0
2015-Aug-08 00:34N 53°07' E 008°41'0 0.0
2015-Aug-07 23:34N 53°07' E 008°41'0 0.0
2015-Aug-07 22:34N 53°07' E 008°41'0 0.0
2015-Aug-07 21:34N 53°07' E 008°41'0 0.0
2015-Aug-07 20:34N 53°07' E 008°41'0 0.0
2015-Aug-07 19:34N 53°07' E 008°41'0 0.0
2015-Aug-07 18:34N 53°07' E 008°41'0 0.0
2015-Aug-07 17:34N 53°07' E 008°41'0 0.0
2015-Aug-07 16:34N 53°07' E 008°41'0 0.0
2015-Aug-07 15:34N 53°07' E 008°41'0 0.0
2015-Aug-07 14:34N 53°07' E 008°41'0 0.0
2015-Aug-07 13:34N 53°07' E 008°41'0 0.0
2015-Aug-07 12:33N 53°07' E 008°41'0 0.0
2015-Aug-07 11:34N 53°07' E 008°41'0 0.0
2015-Aug-07 10:34N 53°07' E 008°41'0 0.0
2015-Aug-07 09:34N 53°07' E 008°41'0 0.0
2015-Aug-07 08:34N 53°07' E 008°41'0 0.0
2015-Aug-07 07:34N 53°07' E 008°41'0 0.0
2015-Aug-07 06:34N 53°07' E 008°41'0 0.0
2015-Aug-07 05:34N 53°07' E 008°41'0 0.0
2015-Aug-07 04:34N 53°07' E 008°41'0 0.0
2015-Aug-07 03:34N 53°07' E 008°41'0 0.0
2015-Aug-07 02:34N 53°07' E 008°41'0 0.0
2015-Aug-07 01:34N 53°07' E 008°41'0 0.0
2015-Aug-07 00:34N 53°07' E 008°41'0 0.0
2015-Aug-06 23:34N 53°07' E 008°41'0 0.0
2015-Aug-06 22:34N 53°07' E 008°41'0 0.0
2015-Aug-06 21:34N 53°07' E 008°41'0 0.0
2015-Aug-06 20:34N 53°07' E 008°41'0 0.0
2015-Aug-06 19:34N 53°07' E 008°41'0 0.0
2015-Aug-06 18:34N 53°07' E 008°41'0 0.0
2015-Aug-06 17:34N 53°07' E 008°41'0 0.0
2015-Aug-06 16:34N 53°07' E 008°41'0 0.0
2015-Aug-06 15:34N 53°07' E 008°41'0 0.0
2015-Aug-06 14:34N 53°07' E 008°41'0 0.0
2015-Aug-06 13:34N 53°07' E 008°41'0 0.0
2015-Aug-06 12:34N 53°07' E 008°41'0 0.0
2015-Aug-06 11:34N 53°07' E 008°41'0 0.0
2015-Aug-06 10:34N 53°07' E 008°41'0 0.0
2015-Aug-06 09:34N 53°07' E 008°41'  

Dump ship's entire track history